createdAt,value
2018-01-15T00:02:03.320Z,101125.41
2018-01-15T00:04:34.686Z,101121.95
2018-01-15T00:07:04.197Z,101129.84
2018-01-15T00:09:35.205Z,101125.95
2018-01-15T00:12:05.578Z,101134.19
2018-01-15T00:14:34.841Z,101136.80
2018-01-15T00:17:04.597Z,101140.27
2018-01-15T00:19:33.996Z,101135.94
2018-01-15T00:22:03.690Z,101137.64
2018-01-15T00:24:32.771Z,101135.05
2018-01-15T00:27:02.195Z,101121.65
2018-01-15T00:29:31.311Z,101119.89
2018-01-15T00:32:00.472Z,101115.61
2018-01-15T00:34:30.972Z,101114.28
2018-01-15T00:37:00.194Z,101120.81
2018-01-15T00:39:29.323Z,101117.83
2018-01-15T00:41:58.498Z,101113.48
2018-01-15T00:44:27.728Z,101114.39
2018-01-15T00:46:57.232Z,101113.14
2018-01-15T00:49:26.362Z,101112.73
2018-01-15T00:51:55.794Z,101109.22
2018-01-15T00:54:25.394Z,101106.66
2018-01-15T00:56:54.764Z,101099.34
2018-01-15T00:59:23.863Z,101095.45
2018-01-15T01:01:53.277Z,101089.88
2018-01-15T01:04:22.362Z,101091.61
2018-01-15T01:06:51.499Z,101096.36
2018-01-15T01:09:20.895Z,101092.54
2018-01-15T01:11:50.153Z,101095.99
2018-01-15T01:14:20.107Z,101084.80
2018-01-15T01:16:49.588Z,101080.51
2018-01-15T01:19:18.693Z,101076.54
2018-01-15T01:21:48.558Z,101083.19
2018-01-15T01:24:18.025Z,101079.31
2018-01-15T01:26:47.141Z,101073.25
2018-01-15T01:29:16.624Z,101071.13
2018-01-15T01:31:46.022Z,101072.03
2018-01-15T01:34:15.262Z,101073.32
2018-01-15T01:36:44.350Z,101069.44
2018-01-15T01:39:13.858Z,101065.98
2018-01-15T01:41:43.011Z,101066.39
2018-01-15T01:44:12.166Z,101065.97
2018-01-15T01:46:41.571Z,101059.05
2018-01-15T01:49:10.672Z,101065.14
2018-01-15T01:51:39.795Z,101071.17
2018-01-15T01:54:09.302Z,101062.55
2018-01-15T01:56:38.405Z,101061.67
2018-01-15T01:59:07.550Z,101055.21
2018-01-15T02:01:36.985Z,101059.11
2018-01-15T02:04:07.349Z,101053.53
2018-01-15T02:06:36.740Z,101052.66
2018-01-15T02:09:06.628Z,101044.05
2018-01-15T02:11:35.762Z,101053.91
2018-01-15T02:14:05.790Z,101052.59
2018-01-15T02:16:35.011Z,101060.39
2018-01-15T02:19:04.148Z,101053.86
2018-01-15T02:21:33.849Z,101058.19
2018-01-15T02:24:04.032Z,101057.24
2018-01-15T02:26:33.383Z,101060.30
2018-01-15T02:29:02.813Z,101063.31
2018-01-15T02:31:31.985Z,101059.83
2018-01-15T02:34:01.867Z,101050.83
2018-01-15T02:36:31.025Z,101049.02
2018-01-15T02:39:00.139Z,101042.99
2018-01-15T02:41:29.531Z,101042.48
2018-01-15T02:43:58.643Z,101033.37
2018-01-15T02:46:27.734Z,101033.92
2018-01-15T02:48:57.140Z,101028.67
2018-01-15T02:51:26.270Z,101020.55
2018-01-15T02:53:55.384Z,101021.34
2018-01-15T02:56:24.785Z,101023.11
2018-01-15T02:58:53.910Z,101019.61
2018-01-15T03:01:27.212Z,101016.09
2018-01-15T03:03:56.719Z,101011.27
2018-01-15T03:06:25.823Z,101015.52
2018-01-15T03:08:55.367Z,101012.91
2018-01-15T03:11:24.834Z,101010.22
2018-01-15T03:13:53.933Z,101011.90
2018-01-15T03:16:23.034Z,101002.36
2018-01-15T03:18:52.139Z,101004.47
2018-01-15T03:21:21.667Z,100997.09
2018-01-15T03:23:51.080Z,100985.88
2018-01-15T03:26:20.206Z,100993.23
2018-01-15T03:28:49.359Z,100989.02
2018-01-15T03:31:18.750Z,100990.72
2018-01-15T03:33:47.858Z,100989.02
2018-01-15T03:36:16.969Z,100976.42
2018-01-15T03:38:46.396Z,100984.97
2018-01-15T03:41:15.550Z,100976.83
2018-01-15T03:43:44.700Z,100976.02
2018-01-15T03:46:14.300Z,100972.23
2018-01-15T03:48:43.417Z,100974.41
2018-01-15T03:51:12.582Z,100970.02
2018-01-15T03:53:41.998Z,100967.45
2018-01-15T03:56:11.129Z,100961.38
2018-01-15T03:58:40.212Z,100964.32
2018-01-15T04:01:09.334Z,100959.11
2018-01-15T04:03:38.423Z,100957.30
2018-01-15T04:06:07.822Z,100960.00
2018-01-15T04:08:36.932Z,100960.34
2018-01-15T04:11:06.035Z,100956.13
2018-01-15T04:13:35.472Z,100949.54
2018-01-15T04:16:05.373Z,100946.66
2018-01-15T04:18:34.503Z,100944.44
2018-01-15T04:21:04.211Z,100935.73
2018-01-15T04:23:33.387Z,100928.41
2018-01-15T04:26:03.247Z,100933.58
2018-01-15T04:28:32.637Z,100925.22
2018-01-15T04:31:01.976Z,100917.49
2018-01-15T04:33:31.066Z,100920.72
2018-01-15T04:36:00.604Z,100918.96
2018-01-15T04:38:29.682Z,100910.27
2018-01-15T04:41:00.034Z,100904.73
2018-01-15T04:43:29.451Z,100904.64
2018-01-15T04:45:58.577Z,100905.06
2018-01-15T04:48:27.779Z,100899.13
2018-01-15T04:50:57.452Z,100902.24
2018-01-15T04:53:26.633Z,100900.00
2018-01-15T04:55:57.142Z,100910.78
2018-01-15T04:58:26.333Z,100902.51
2018-01-15T05:00:55.637Z,100899.51
2018-01-15T05:03:24.832Z,100892.62
2018-01-15T05:05:54.210Z,100895.88
2018-01-15T05:08:28.858Z,100895.99
2018-01-15T05:10:58.071Z,100893.77
2018-01-15T05:13:27.305Z,100898.13
2018-01-15T05:15:56.896Z,100892.45
2018-01-15T05:18:26.093Z,100889.73
2018-01-15T05:20:55.202Z,100893.72
2018-01-15T05:23:24.694Z,100890.63
2018-01-15T05:25:53.839Z,100898.93
2018-01-15T05:28:22.981Z,100903.66
2018-01-15T05:30:53.452Z,100895.81
2018-01-15T05:33:22.612Z,100893.28
2018-01-15T05:35:51.759Z,100893.63
2018-01-15T05:38:21.636Z,100890.28
2018-01-15T05:40:51.246Z,100889.05
2018-01-15T05:43:20.402Z,100892.56
2018-01-15T05:45:51.692Z,100887.03
2018-01-15T05:48:21.012Z,100885.82
2018-01-15T05:50:51.137Z,100885.15
2018-01-15T05:53:20.604Z,100883.05
2018-01-15T05:55:49.926Z,100882.20
2018-01-15T05:58:19.115Z,100875.42
2018-01-15T06:00:50.885Z,100876.28
2018-01-15T06:03:20.079Z,100868.13
2018-01-15T06:05:49.360Z,100864.25
2018-01-15T06:08:18.474Z,100870.80
2018-01-15T06:10:47.674Z,100868.28
2018-01-15T06:13:17.766Z,100863.97
2018-01-15T06:15:46.967Z,100866.20
2018-01-15T06:18:16.141Z,100861.05
2018-01-15T06:20:46.605Z,100852.81
2018-01-15T06:23:15.999Z,100847.23
2018-01-15T06:25:45.176Z,100846.38
2018-01-15T06:28:14.763Z,100848.59
2018-01-15T06:30:44.105Z,100840.49
2018-01-15T06:33:13.352Z,100846.48
2018-01-15T06:35:42.531Z,100848.95
2018-01-15T06:38:11.830Z,100855.36
2018-01-15T06:40:41.261Z,100860.11
2018-01-15T06:43:10.379Z,100857.92
2018-01-15T06:45:39.656Z,100861.89
2018-01-15T06:48:09.558Z,100860.11
2018-01-15T06:50:38.730Z,100857.36
2018-01-15T06:53:08.152Z,100854.31
2018-01-15T06:55:37.306Z,100853.07
2018-01-15T06:58:06.602Z,100846.56
2018-01-15T07:00:35.757Z,100852.16
2018-01-15T07:03:05.183Z,100858.17
2018-01-15T07:05:34.358Z,100861.52
2018-01-15T07:08:04.730Z,100861.93
2018-01-15T07:10:33.885Z,100854.16
2018-01-15T07:13:04.263Z,100852.50
2018-01-15T07:15:33.730Z,100849.83
2018-01-15T07:18:04.195Z,100850.19
2018-01-15T07:20:33.411Z,100851.88
2018-01-15T07:23:03.138Z,100852.66
2018-01-15T07:25:32.259Z,100847.91
2018-01-15T07:28:01.798Z,100850.06
2018-01-15T07:30:31.250Z,100848.73
2018-01-15T07:33:02.051Z,100847.84
2018-01-15T07:35:31.200Z,100845.20
2018-01-15T07:38:02.866Z,100841.16
2018-01-15T07:40:32.114Z,100842.02
2018-01-15T07:43:02.100Z,100835.07
2018-01-15T07:45:31.552Z,100830.63
2018-01-15T07:48:01.060Z,100829.59
2018-01-15T07:50:30.219Z,100830.39
2018-01-15T07:52:59.340Z,100826.63
2018-01-15T07:55:28.503Z,100819.08
2018-01-15T07:57:58.857Z,100818.81
2018-01-15T08:00:27.951Z,100809.36
2018-01-15T08:02:57.081Z,100803.41
2018-01-15T08:05:26.596Z,100813.79
2018-01-15T08:07:55.716Z,100812.89
2018-01-15T08:10:24.896Z,100799.73
2018-01-15T08:12:54.301Z,100801.96
2018-01-15T08:15:23.493Z,100799.84
2018-01-15T08:17:53.538Z,100798.41
2018-01-15T08:20:22.934Z,100799.45
2018-01-15T08:22:52.057Z,100803.23
2018-01-15T08:25:21.510Z,100803.84
2018-01-15T08:27:50.714Z,100797.46
2018-01-15T08:30:19.815Z,100798.33
2018-01-15T08:32:49.053Z,100803.84
2018-01-15T08:35:18.198Z,100800.05
2018-01-15T08:37:47.657Z,100789.72
2018-01-15T08:40:17.338Z,100793.20
2018-01-15T08:42:46.455Z,100784.95
2018-01-15T08:45:15.595Z,100774.58
2018-01-15T08:47:44.758Z,100766.22
2018-01-15T08:50:14.238Z,100760.31
2018-01-15T08:52:43.368Z,100755.11
2018-01-15T08:55:12.555Z,100751.55
2018-01-15T08:57:42.063Z,100750.72
2018-01-15T09:00:11.303Z,100753.13
2018-01-15T09:02:40.477Z,100743.61
2018-01-15T09:05:11.397Z,100741.02
2018-01-15T09:07:40.703Z,100734.42
2018-01-15T09:10:09.895Z,100729.77
2018-01-15T09:12:39.377Z,100732.69
2018-01-15T09:15:08.508Z,100721.44
2018-01-15T09:17:38.564Z,100725.22
2018-01-15T09:20:07.993Z,100722.66
2018-01-15T09:22:37.138Z,100716.17
2018-01-15T09:25:06.266Z,100716.61
2018-01-15T09:27:35.720Z,100710.94
2018-01-15T09:30:06.669Z,100701.47
2018-01-15T09:32:35.792Z,100707.40
2018-01-15T09:35:05.510Z,100708.73
2018-01-15T09:37:34.630Z,100707.64
2018-01-15T09:40:05.561Z,100701.81
2018-01-15T09:42:34.982Z,100714.91
2018-01-15T09:45:05.005Z,100699.34
2018-01-15T09:47:34.148Z,100693.05
2018-01-15T09:50:04.470Z,100690.57
2018-01-15T09:52:33.694Z,100681.53
2018-01-15T09:55:04.147Z,100681.88
2018-01-15T09:57:33.578Z,100683.53
2018-01-15T10:00:04.680Z,100669.17
2018-01-15T10:02:33.816Z,100673.89
2018-01-15T10:05:03.907Z,100677.42
2018-01-15T10:07:33.075Z,100674.00
2018-01-15T10:10:03.991Z,100666.13
2018-01-15T10:12:33.410Z,100659.07
2018-01-15T10:15:02.847Z,100652.59
2018-01-15T10:17:31.977Z,100650.67
2018-01-15T10:20:02.791Z,100641.94
2018-01-15T10:22:31.945Z,100641.47
2018-01-15T10:25:01.467Z,100627.32
2018-01-15T10:27:30.892Z,100633.46
2018-01-15T10:30:00.085Z,100620.48
2018-01-15T10:32:29.226Z,100619.39
2018-01-15T10:34:58.687Z,100610.97
2018-01-15T10:37:27.859Z,100597.81
2018-01-15T10:39:57.003Z,100592.66
2018-01-15T10:42:26.552Z,100592.48
2018-01-15T10:44:55.675Z,100594.03
2018-01-15T10:47:24.846Z,100583.88
2018-01-15T10:49:54.466Z,100582.45
2018-01-15T10:52:23.628Z,100576.14
2018-01-15T10:54:52.848Z,100570.89
2018-01-15T10:57:22.350Z,100559.16
2018-01-15T10:59:52.945Z,100557.47
2018-01-15T11:02:22.066Z,100541.17
2018-01-15T11:04:51.636Z,100551.85
2018-01-15T11:07:20.783Z,100525.61
2018-01-15T11:09:50.694Z,100531.16
2018-01-15T11:12:20.115Z,100522.99
2018-01-15T11:14:49.358Z,100521.52
2018-01-15T11:17:18.678Z,100510.05
2018-01-15T11:19:48.346Z,100498.99
2018-01-15T11:22:17.504Z,100506.19
2018-01-15T11:24:46.651Z,100498.02
2018-01-15T11:27:16.063Z,100481.55
2018-01-15T11:29:45.188Z,100484.92
2018-01-15T11:32:14.314Z,100465.59
2018-01-15T11:34:43.740Z,100456.48
2018-01-15T11:37:12.927Z,100465.36
2018-01-15T11:39:42.118Z,100462.02
2018-01-15T11:42:11.278Z,100475.50
2018-01-15T11:44:40.570Z,100461.36
2018-01-15T11:47:09.774Z,100455.95
2018-01-15T11:49:39.177Z,100447.06
2018-01-15T11:52:08.446Z,100442.12
2018-01-15T11:54:37.569Z,100433.80
2018-01-15T11:57:07.017Z,100417.16
2018-01-15T11:59:36.214Z,100412.14
2018-01-15T12:02:06.387Z,100414.65
2018-01-15T12:04:35.825Z,100399.09
2018-01-15T12:07:05.466Z,100385.77
2018-01-15T12:09:34.596Z,100386.45
2018-01-15T12:12:04.945Z,100368.48
2018-01-15T12:14:34.083Z,100355.66
2018-01-15T12:17:03.454Z,100356.67
2018-01-15T12:19:32.940Z,100350.52
2018-01-15T12:22:02.805Z,100339.75
2018-01-15T12:24:31.988Z,100340.49
2018-01-15T12:27:04.039Z,100339.10
2018-01-15T12:29:33.188Z,100318.67
2018-01-15T12:32:03.148Z,100321.58
2018-01-15T12:34:32.638Z,100299.44
2018-01-15T12:37:02.118Z,100311.28
2018-01-15T12:39:31.358Z,100287.10
2018-01-15T12:42:02.471Z,100290.06
2018-01-15T12:44:31.585Z,100288.17
2018-01-15T12:47:01.956Z,100296.38
2018-01-15T12:49:31.167Z,100285.20
2018-01-15T12:52:00.306Z,100282.88
2018-01-15T12:54:29.452Z,100276.31
2018-01-15T12:57:00.176Z,100273.53
2018-01-15T12:59:29.715Z,100263.16
2018-01-15T13:01:59.706Z,100265.61
2018-01-15T13:04:28.903Z,100251.63
2018-01-15T13:06:58.951Z,100233.37
2018-01-15T13:09:28.108Z,100226.44
2018-01-15T13:11:57.570Z,100223.03
2018-01-15T13:14:26.770Z,100236.98
2018-01-15T13:16:56.987Z,100220.20
2018-01-15T13:19:26.539Z,100222.63
2018-01-15T13:21:55.714Z,100229.88
2018-01-15T13:24:24.877Z,100214.27
2018-01-15T13:26:55.357Z,100211.53
2018-01-15T13:29:24.568Z,100198.20
2018-01-15T13:31:53.708Z,100186.92
2018-01-15T13:34:23.125Z,100185.45
2018-01-15T13:36:52.285Z,100177.05
2018-01-15T13:39:21.414Z,100167.08
2018-01-15T13:41:51.950Z,100156.81
2018-01-15T13:44:21.067Z,100137.95
2018-01-15T13:46:51.679Z,100130.08
2018-01-15T13:49:21.251Z,100116.92
2018-01-15T13:51:52.221Z,100117.34
2018-01-15T13:54:21.426Z,100093.34
2018-01-15T13:56:52.020Z,100091.48
2018-01-15T13:59:21.190Z,100073.35
2018-01-15T14:01:52.050Z,100060.25
2018-01-15T14:04:22.139Z,100050.22
2018-01-15T14:06:51.710Z,100035.58
2018-01-15T14:09:21.270Z,100022.98
2018-01-15T14:11:50.997Z,100019.72
2018-01-15T14:14:20.417Z,100008.30
2018-01-15T14:16:50.759Z,100000.73
2018-01-15T14:19:21.772Z,99990.72
2018-01-15T14:21:51.819Z,99972.47
2018-01-15T14:24:21.556Z,99962.48
2018-01-15T14:26:51.750Z,99944.81
2018-01-15T14:29:21.234Z,99953.25
2018-01-15T14:31:50.864Z,99943.41
2018-01-15T14:34:20.474Z,99947.67
2018-01-15T14:36:49.792Z,99954.70
2018-01-15T14:39:19.847Z,99930.61
2018-01-15T14:41:49.835Z,99932.59
2018-01-15T14:44:19.231Z,99920.52
2018-01-15T14:46:48.941Z,99904.80
2018-01-15T14:49:18.664Z,99892.99
2018-01-15T14:51:48.094Z,99881.28
2018-01-15T14:54:18.160Z,99880.42
2018-01-15T14:56:47.604Z,99862.64
2018-01-15T14:59:16.960Z,99852.19
2018-01-15T15:01:46.502Z,99846.58
2018-01-15T15:04:16.045Z,99853.09
2018-01-15T15:06:45.165Z,99853.41
2018-01-15T15:09:14.636Z,99852.20
2018-01-15T15:11:43.995Z,99849.35
2018-01-15T15:14:13.117Z,99849.44
2018-01-15T15:16:44.274Z,99848.41
2018-01-15T15:19:14.778Z,99853.80
2018-01-15T15:21:44.581Z,99849.98
2018-01-15T15:24:14.912Z,99853.58
2018-01-15T15:26:44.729Z,99852.67
2018-01-15T15:29:14.535Z,99850.48
2018-01-15T15:31:44.769Z,99843.61
2018-01-15T15:34:15.433Z,99836.78
2018-01-15T15:36:45.421Z,99838.34
2018-01-15T15:39:15.612Z,99835.09
2018-01-15T15:41:45.611Z,99835.27
2018-01-15T15:44:15.281Z,99837.19
2018-01-15T15:46:44.941Z,99836.30
2018-01-15T15:49:14.902Z,99837.27
2018-01-15T15:51:44.347Z,99833.78
2018-01-15T15:54:15.782Z,99826.42
2018-01-15T15:56:46.394Z,99828.41
2018-01-15T15:59:17.068Z,99821.97
2018-01-15T16:01:46.323Z,99814.81
2018-01-15T16:04:15.727Z,99816.70
2018-01-15T16:06:45.206Z,99800.56
2018-01-15T16:09:14.587Z,99791.95
2018-01-15T16:11:43.741Z,99776.52
2018-01-15T16:14:13.194Z,99788.75
2018-01-15T16:16:42.512Z,99769.67
2018-01-15T16:19:12.788Z,99762.41
2018-01-15T16:21:43.280Z,99756.31
2018-01-15T16:24:13.222Z,99751.96
2018-01-15T16:26:42.376Z,99751.79
2018-01-15T16:29:11.875Z,99739.03
2018-01-15T16:31:41.124Z,99732.76
2018-01-15T16:34:10.348Z,99730.34
2018-01-15T16:36:39.559Z,99721.13
2018-01-15T16:39:08.733Z,99703.23
2018-01-15T16:41:38.334Z,99688.09
2018-01-15T16:44:08.791Z,99676.09
2018-01-15T16:46:38.399Z,99657.86
2018-01-15T16:49:08.063Z,99639.80
2018-01-15T16:51:37.633Z,99634.86
2018-01-15T16:54:07.116Z,99623.88
2018-01-15T16:56:36.355Z,99624.53
2018-01-15T16:59:06.240Z,99620.25
2018-01-15T17:01:35.878Z,99622.59
2018-01-15T17:04:06.774Z,99620.84
2018-01-15T17:06:36.151Z,99611.67
2018-01-15T17:09:05.747Z,99607.17
2018-01-15T17:11:35.019Z,99602.70
2018-01-15T17:14:05.332Z,99594.06
2018-01-15T17:16:34.592Z,99590.50
2018-01-15T17:19:05.094Z,99580.11
2018-01-15T17:21:36.752Z,99582.47
2018-01-15T17:24:06.870Z,99579.30
2018-01-15T17:26:35.996Z,99591.59
2018-01-15T17:29:05.532Z,99571.35
2018-01-15T17:31:34.853Z,99559.83
2018-01-15T17:34:05.548Z,99546.91
2018-01-15T17:36:34.858Z,99541.77
2018-01-15T17:39:05.828Z,99540.01
2018-01-15T17:41:35.150Z,99534.23
2018-01-15T17:44:06.825Z,99531.52
2018-01-15T17:46:37.305Z,99523.70
2018-01-15T17:49:06.659Z,99519.22
2018-01-15T17:51:36.193Z,99511.68
2018-01-15T17:54:06.249Z,99507.30
2018-01-15T17:56:35.531Z,99505.71
2018-01-15T17:59:05.101Z,99506.95
2018-01-15T18:01:35.105Z,99497.77
2018-01-15T18:04:05.286Z,99495.39
2018-01-15T18:06:34.569Z,99491.23
2018-01-15T18:09:05.506Z,99474.67
2018-01-15T18:11:34.862Z,99475.77
2018-01-15T18:14:07.382Z,99468.32
2018-01-15T18:16:37.357Z,99463.84
2018-01-15T18:19:06.716Z,99456.36
2018-01-15T18:21:36.282Z,99453.11
2018-01-15T18:24:11.824Z,99446.34
2018-01-15T18:26:45.438Z,99443.78
2018-01-15T18:29:14.927Z,99444.66
2018-01-15T18:31:44.092Z,99435.50
2018-01-15T18:34:16.935Z,99439.81
2018-01-15T18:36:46.782Z,99429.50
2018-01-15T18:39:16.005Z,99422.55
2018-01-15T18:41:45.182Z,99417.32
2018-01-15T18:44:15.856Z,99410.32
2018-01-15T18:46:45.034Z,99403.09
2018-01-15T18:49:14.727Z,99408.53
2018-01-15T18:51:44.256Z,99395.67
2018-01-15T18:54:19.068Z,99402.12
2018-01-15T18:56:54.958Z,99402.25
2018-01-15T18:59:31.433Z,99372.62
2018-01-15T19:02:08.684Z,99377.38
2018-01-15T19:04:38.307Z,99358.69
2018-01-15T19:07:07.504Z,99349.81
2018-01-15T19:09:36.631Z,99342.31
2018-01-15T19:12:06.248Z,99336.56
2018-01-15T19:14:35.680Z,99332.73
2018-01-15T19:17:05.277Z,99322.74
2018-01-15T19:19:34.417Z,99306.83
2018-01-15T19:22:07.287Z,99294.40
2018-01-15T19:24:36.471Z,99287.98
2018-01-15T19:27:05.857Z,99275.41
2018-01-15T19:29:35.122Z,99270.50
2018-01-15T19:32:06.068Z,99254.56
2018-01-15T19:34:35.383Z,99247.51
2018-01-15T19:37:06.317Z,99255.99
2018-01-15T19:39:35.563Z,99245.41
2018-01-15T19:42:05.552Z,99239.91
2018-01-15T19:44:39.066Z,99237.91
2018-01-15T19:47:13.267Z,99242.58
2018-01-15T19:50:49.778Z,99229.08
2018-01-15T19:55:25.481Z,99219.88
2018-01-15T19:57:59.617Z,99221.50
2018-01-15T20:02:39.226Z,99207.83
2018-01-15T20:05:13.653Z,99229.54
2018-01-15T20:07:47.715Z,99208.02
2018-01-15T20:10:52.241Z,99207.41
2018-01-15T20:13:21.654Z,99202.07
2018-01-15T20:15:51.299Z,99197.16
2018-01-15T20:18:20.458Z,99182.82
2018-01-15T20:20:49.677Z,99182.80
2018-01-15T20:23:18.936Z,99169.52
2018-01-15T20:25:48.024Z,99162.55
2018-01-15T20:28:17.201Z,99165.40
2018-01-15T20:30:46.607Z,99161.03
2018-01-15T20:33:16.295Z,99161.97
2018-01-15T20:35:45.427Z,99157.05
2018-01-15T20:38:15.135Z,99144.99
2018-01-15T20:40:44.375Z,99141.41
2018-01-15T20:43:13.606Z,99145.56
2018-01-15T20:45:43.081Z,99131.67
2018-01-15T20:48:12.190Z,99132.36
2018-01-15T20:50:51.383Z,99121.80
2018-01-15T20:53:21.277Z,99120.23
2018-01-15T20:55:50.457Z,99117.20
2018-01-15T20:58:19.601Z,99122.84
2018-01-15T21:00:49.735Z,99118.94
2018-01-15T21:03:18.867Z,99123.86
2018-01-15T21:05:48.174Z,99120.73
2018-01-15T21:08:17.870Z,99130.84
2018-01-15T21:10:47.077Z,99116.95
2018-01-15T21:13:17.308Z,99123.50
2018-01-15T21:15:46.448Z,99104.38
2018-01-15T21:18:15.602Z,99096.36
2018-01-15T21:20:44.691Z,99092.48
2018-01-15T21:23:14.167Z,99082.83
2018-01-15T21:25:43.379Z,99092.64
2018-01-15T21:28:12.672Z,99078.86
2018-01-15T21:30:42.495Z,99080.48
2018-01-15T21:33:12.049Z,99073.80
2018-01-15T21:36:00.201Z,99073.83
2018-01-15T21:38:32.514Z,99052.94
2018-01-15T21:41:02.525Z,99054.34
2018-01-15T21:43:37.645Z,99056.20
2018-01-15T21:46:07.288Z,99051.73
2018-01-15T21:48:37.902Z,99055.71
2018-01-15T21:51:16.294Z,99040.78
2018-01-15T21:53:45.530Z,99026.09
2018-01-15T21:56:22.283Z,99036.25
2018-01-15T21:58:51.797Z,99019.41
2018-01-15T22:01:27.313Z,99040.72
2018-01-15T22:03:59.794Z,99014.64
2018-01-15T22:06:30.532Z,99025.14
2018-01-15T22:09:07.229Z,99018.72
2018-01-15T22:11:42.473Z,99001.19
2018-01-15T22:14:17.978Z,99002.69
2018-01-15T22:16:47.180Z,99001.91
2018-01-15T22:19:18.880Z,98995.52
2018-01-15T22:21:48.142Z,99000.95
2018-01-15T22:24:17.281Z,98993.28
2018-01-15T22:26:46.915Z,99010.61
2018-01-15T22:29:16.055Z,99011.73
2018-01-15T22:31:45.205Z,99022.62
2018-01-15T22:34:14.724Z,99003.32
2018-01-15T22:36:43.935Z,99011.02
2018-01-15T22:39:13.107Z,98996.97
2018-01-15T22:41:42.770Z,99007.79
2018-01-15T22:44:12.026Z,99011.75
2018-01-15T22:46:41.199Z,99010.64
2018-01-15T22:49:10.919Z,99001.94
2018-01-15T22:51:40.178Z,99006.14
2018-01-15T22:54:09.425Z,99005.81
2018-01-15T22:56:38.842Z,99003.69
2018-01-15T22:59:08.798Z,99003.44
2018-01-15T23:01:37.936Z,98994.75
2018-01-15T23:04:07.362Z,98995.44
2018-01-15T23:06:36.510Z,98991.62
2018-01-15T23:09:06.000Z,99004.89
2018-01-15T23:11:35.167Z,98985.33
2018-01-15T23:14:05.259Z,98991.20
2018-01-15T23:16:34.395Z,98989.63
2018-01-15T23:19:04.654Z,98983.47
2018-01-15T23:21:33.896Z,98990.94
2018-01-15T23:24:04.930Z,98988.26
2018-01-15T23:30:06.169Z,98997.83
2018-01-15T23:32:35.577Z,98990.84
2018-01-15T23:35:05.061Z,98988.55
2018-01-15T23:37:34.200Z,98994.65
2018-01-15T23:40:04.976Z,98988.04
2018-01-15T23:42:35.249Z,98988.22
2018-01-15T23:45:05.278Z,98983.58
2018-01-15T23:47:35.927Z,98969.27
2018-01-15T23:50:06.740Z,98976.20
2018-01-15T23:52:37.105Z,98961.09
2018-01-15T23:55:08.071Z,98971.18
2018-01-15T23:57:38.605Z,98958.73
